sensor_id;sensor_type;location;lat;lon;timestamp;temperature;humidity
8002;DHT22;4046;48.774;8.732;2024-02-28T00:01:11;20.70;70.20
8002;DHT22;4046;48.774;8.732;2024-02-28T00:03:38;20.70;70.20
8002;DHT22;4046;48.774;8.732;2024-02-28T00:06:04;20.70;70.20
8002;DHT22;4046;48.774;8.732;2024-02-28T00:11:49;20.70;70.20
8002;DHT22;4046;48.774;8.732;2024-02-28T00:14:15;20.70;70.30
8002;DHT22;4046;48.774;8.732;2024-02-28T00:16:42;20.70;70.30
8002;DHT22;4046;48.774;8.732;2024-02-28T00:19:09;20.70;70.30
8002;DHT22;4046;48.774;8.732;2024-02-28T00:21:37;20.70;70.30
8002;DHT22;4046;48.774;8.732;2024-02-28T00:24:04;20.70;70.20
8002;DHT22;4046;48.774;8.732;2024-02-28T00:26:30;20.70;70.20
8002;DHT22;4046;48.774;8.732;2024-02-28T00:28:56;20.70;70.20
8002;DHT22;4046;48.774;8.732;2024-02-28T00:31:49;20.80;70.30
8002;DHT22;4046;48.774;8.732;2024-02-28T00:34:15;20.70;70.20
8002;DHT22;4046;48.774;8.732;2024-02-28T00:36:42;20.70;70.30
8002;DHT22;4046;48.774;8.732;2024-02-28T00:39:27;20.70;70.30
8002;DHT22;4046;48.774;8.732;2024-02-28T00:42:25;20.70;70.20
8002;DHT22;4046;48.774;8.732;2024-02-28T00:44:53;20.70;70.30
8002;DHT22;4046;48.774;8.732;2024-02-28T00:47:19;20.70;70.30
8002;DHT22;4046;48.774;8.732;2024-02-28T00:49:45;20.70;70.30
8002;DHT22;4046;48.774;8.732;2024-02-28T00:52:11;20.70;70.30
8002;DHT22;4046;48.774;8.732;2024-02-28T00:54:38;20.70;70.30
8002;DHT22;4046;48.774;8.732;2024-02-28T00:57:04;20.70;70.20
8002;DHT22;4046;48.774;8.732;2024-02-28T00:59:30;20.70;70.30
8002;DHT22;4046;48.774;8.732;2024-02-28T01:01:56;20.70;70.30
8002;DHT22;4046;48.774;8.732;2024-02-28T01:04:23;20.70;70.20
8002;DHT22;4046;48.774;8.732;2024-02-28T01:06:49;20.70;70.20
8002;DHT22;4046;48.774;8.732;2024-02-28T01:09:15;20.70;70.30
8002;DHT22;4046;48.774;8.732;2024-02-28T01:11:41;20.70;70.30
8002;DHT22;4046;48.774;8.732;2024-02-28T01:14:08;20.70;70.30
8002;DHT22;4046;48.774;8.732;2024-02-28T01:16:43;20.70;70.30
8002;DHT22;4046;48.774;8.732;2024-02-28T01:19:26;20.70;70.30
8002;DHT22;4046;48.774;8.732;2024-02-28T01:21:52;20.70;70.30
8002;DHT22;4046;48.774;8.732;2024-02-28T01:24:18;20.70;70.30
8002;DHT22;4046;48.774;8.732;2024-02-28T01:26:44;20.80;70.30
8002;DHT22;4046;48.774;8.732;2024-02-28T01:29:10;20.70;70.20
8002;DHT22;4046;48.774;8.732;2024-02-28T01:31:37;20.70;70.30
8002;DHT22;4046;48.774;8.732;2024-02-28T01:34:03;20.70;70.40
8002;DHT22;4046;48.774;8.732;2024-02-28T01:36:59;20.70;70.30
8002;DHT22;4046;48.774;8.732;2024-02-28T01:39:55;20.70;70.30
8002;DHT22;4046;48.774;8.732;2024-02-28T01:42:41;20.70;70.30
8002;DHT22;4046;48.774;8.732;2024-02-28T01:45:58;20.70;70.30
8002;DHT22;4046;48.774;8.732;2024-02-28T01:48:25;20.70;70.30
8002;DHT22;4046;48.774;8.732;2024-02-28T01:50:51;20.70;70.40
8002;DHT22;4046;48.774;8.732;2024-02-28T01:53:18;20.70;70.40
8002;DHT22;4046;48.774;8.732;2024-02-28T01:55:44;20.70;70.30
8002;DHT22;4046;48.774;8.732;2024-02-28T01:58:11;20.70;70.30
8002;DHT22;4046;48.774;8.732;2024-02-28T02:03:55;20.70;70.30
8002;DHT22;4046;48.774;8.732;2024-02-28T02:06:22;20.70;70.30
8002;DHT22;4046;48.774;8.732;2024-02-28T02:12:24;20.70;70.30
8002;DHT22;4046;48.774;8.732;2024-02-28T02:14:50;20.70;70.30
8002;DHT22;4046;48.774;8.732;2024-02-28T02:17:23;20.70;70.30
8002;DHT22;4046;48.774;8.732;2024-02-28T02:20:16;20.70;70.30
8002;DHT22;4046;48.774;8.732;2024-02-28T02:22:53;20.70;70.40
8002;DHT22;4046;48.774;8.732;2024-02-28T02:32:32;20.70;70.40
8002;DHT22;4046;48.774;8.732;2024-02-28T02:34:58;20.70;70.50
8002;DHT22;4046;48.774;8.732;2024-02-28T02:37:24;20.70;70.40
8002;DHT22;4046;48.774;8.732;2024-02-28T02:39:51;20.70;70.50
8002;DHT22;4046;48.774;8.732;2024-02-28T02:42:37;20.70;70.40
8002;DHT22;4046;48.774;8.732;2024-02-28T02:45:14;20.70;70.50
8002;DHT22;4046;48.774;8.732;2024-02-28T02:47:59;20.60;70.30
8002;DHT22;4046;48.774;8.732;2024-02-28T02:50:54;20.70;70.40
8002;DHT22;4046;48.774;8.732;2024-02-28T02:53:20;20.70;70.40
8002;DHT22;4046;48.774;8.732;2024-02-28T02:55:59;20.70;71.20
8002;DHT22;4046;48.774;8.732;2024-02-28T02:59:14;20.70;70.50
8002;DHT22;4046;48.774;8.732;2024-02-28T03:05:14;20.70;70.40
8002;DHT22;4046;48.774;8.732;2024-02-28T03:08:05;20.70;70.40
8002;DHT22;4046;48.774;8.732;2024-02-28T03:11:00;20.70;70.40
8002;DHT22;4046;48.774;8.732;2024-02-28T03:13:47;20.70;70.40
8002;DHT22;4046;48.774;8.732;2024-02-28T03:16:13;20.60;70.30
8002;DHT22;4046;48.774;8.732;2024-02-28T03:18:39;20.60;70.30
8002;DHT22;4046;48.774;8.732;2024-02-28T03:24:33;20.70;70.40
8002;DHT22;4046;48.774;8.732;2024-02-28T03:30:31;20.70;70.30
8002;DHT22;4046;48.774;8.732;2024-02-28T03:36:54;20.70;70.30
8002;DHT22;4046;48.774;8.732;2024-02-28T03:42:54;20.70;70.40
8002;DHT22;4046;48.774;8.732;2024-02-28T03:45:20;20.70;70.30
8002;DHT22;4046;48.774;8.732;2024-02-28T03:47:47;20.70;70.40
8002;DHT22;4046;48.774;8.732;2024-02-28T03:50:13;20.70;70.40
8002;DHT22;4046;48.774;8.732;2024-02-28T03:52:39;20.60;70.30
8002;DHT22;4046;48.774;8.732;2024-02-28T03:55:51;20.70;70.40
8002;DHT22;4046;48.774;8.732;2024-02-28T04:01:26;20.70;70.30
8002;DHT22;4046;48.774;8.732;2024-02-28T04:03:52;20.70;70.30
8002;DHT22;4046;48.774;8.732;2024-02-28T04:06:19;20.70;70.30
8002;DHT22;4046;48.774;8.732;2024-02-28T04:08:45;20.70;70.30
8002;DHT22;4046;48.774;8.732;2024-02-28T04:11:11;20.30;69.90
8002;DHT22;4046;48.774;8.732;2024-02-28T04:13:37;20.70;70.30
8002;DHT22;4046;48.774;8.732;2024-02-28T04:16:04;20.70;70.30
8002;DHT22;4046;48.774;8.732;2024-02-28T04:18:31;20.70;70.30
8002;DHT22;4046;48.774;8.732;2024-02-28T04:20:57;20.70;70.30
8002;DHT22;4046;48.774;8.732;2024-02-28T04:24:15;20.70;70.30
8002;DHT22;4046;48.774;8.732;2024-02-28T04:26:54;20.70;70.30
8002;DHT22;4046;48.774;8.732;2024-02-28T04:29:20;20.70;70.30
8002;DHT22;4046;48.774;8.732;2024-02-28T04:31:47;20.60;70.20
8002;DHT22;4046;48.774;8.732;2024-02-28T04:34:13;20.60;70.30
8002;DHT22;4046;48.774;8.732;2024-02-28T04:36:39;20.50;70.10
8002;DHT22;4046;48.774;8.732;2024-02-28T04:39:05;20.60;70.30
8002;DHT22;4046;48.774;8.732;2024-02-28T04:41:39;20.60;70.20
8002;DHT22;4046;48.774;8.732;2024-02-28T04:44:32;20.60;70.20
8002;DHT22;4046;48.774;8.732;2024-02-28T04:47:14;20.70;70.30
8002;DHT22;4046;48.774;8.732;2024-02-28T04:49:40;20.70;70.30
8002;DHT22;4046;48.774;8.732;2024-02-28T04:52:06;20.70;70.30
8002;DHT22;4046;48.774;8.732;2024-02-28T04:54:33;20.70;70.30
8002;DHT22;4046;48.774;8.732;2024-02-28T04:56:59;20.60;70.20
8002;DHT22;4046;48.774;8.732;2024-02-28T04:59:26;20.60;70.20
8002;DHT22;4046;48.774;8.732;2024-02-28T05:01:52;20.60;70.30
8002;DHT22;4046;48.774;8.732;2024-02-28T05:04:18;20.60;70.30
8002;DHT22;4046;48.774;8.732;2024-02-28T05:06:54;20.70;70.30
8002;DHT22;4046;48.774;8.732;2024-02-28T05:09:20;20.70;70.30
8002;DHT22;4046;48.774;8.732;2024-02-28T05:11:47;20.60;70.20
8002;DHT22;4046;48.774;8.732;2024-02-28T05:14:36;20.70;70.20
8002;DHT22;4046;48.774;8.732;2024-02-28T05:17:05;20.70;70.20
8002;DHT22;4046;48.774;8.732;2024-02-28T05:26:57;20.60;70.20
8002;DHT22;4046;48.774;8.732;2024-02-28T05:29:24;20.60;70.20
8002;DHT22;4046;48.774;8.732;2024-02-28T05:35:10;20.60;70.30
8002;DHT22;4046;48.774;8.732;2024-02-28T05:37:37;20.60;70.30
8002;DHT22;4046;48.774;8.732;2024-02-28T05:40:19;20.60;70.20
8002;DHT22;4046;48.774;8.732;2024-02-28T05:43:09;20.60;70.20
8002;DHT22;4046;48.774;8.732;2024-02-28T05:45:35;20.60;70.20
8002;DHT22;4046;48.774;8.732;2024-02-28T05:48:09;20.60;70.20
8002;DHT22;4046;48.774;8.732;2024-02-28T05:50:57;20.60;70.30
8002;DHT22;4046;48.774;8.732;2024-02-28T05:53:23;20.60;70.20
8002;DHT22;4046;48.774;8.732;2024-02-28T05:55:53;20.60;70.20
8002;DHT22;4046;48.774;8.732;2024-02-28T05:58:20;20.60;70.20
8002;DHT22;4046;48.774;8.732;2024-02-28T06:00:55;20.60;70.20
8002;DHT22;4046;48.774;8.732;2024-02-28T06:03:21;20.70;70.30
8002;DHT22;4046;48.774;8.732;2024-02-28T06:05:54;20.60;70.10
8002;DHT22;4046;48.774;8.732;2024-02-28T06:08:39;20.60;70.20
8002;DHT22;4046;48.774;8.732;2024-02-28T06:11:05;20.60;70.10
8002;DHT22;4046;48.774;8.732;2024-02-28T06:14:08;20.60;70.20
8002;DHT22;4046;48.774;8.732;2024-02-28T06:17:25;20.60;70.20
8002;DHT22;4046;48.774;8.732;2024-02-28T06:23:19;20.60;70.20
8002;DHT22;4046;48.774;8.732;2024-02-28T06:25:45;20.60;71.00
8002;DHT22;4046;48.774;8.732;2024-02-28T06:28:11;20.60;70.20
8002;DHT22;4046;48.774;8.732;2024-02-28T06:30:37;20.60;70.20
8002;DHT22;4046;48.774;8.732;2024-02-28T06:33:04;20.60;70.20
8002;DHT22;4046;48.774;8.732;2024-02-28T06:39:29;20.60;70.20
8002;DHT22;4046;48.774;8.732;2024-02-28T06:41:55;20.60;70.20
8002;DHT22;4046;48.774;8.732;2024-02-28T06:47:31;20.60;70.20
8002;DHT22;4046;48.774;8.732;2024-02-28T06:50:04;20.60;70.20
8002;DHT22;4046;48.774;8.732;2024-02-28T06:52:31;20.60;70.10
8002;DHT22;4046;48.774;8.732;2024-02-28T06:55:04;20.60;70.10
8002;DHT22;4046;48.774;8.732;2024-02-28T06:57:54;20.60;70.10
8002;DHT22;4046;48.774;8.732;2024-02-28T07:00:29;20.60;70.10
8002;DHT22;4046;48.774;8.732;2024-02-28T07:03:07;20.60;70.10
8002;DHT22;4046;48.774;8.732;2024-02-28T07:05:48;20.60;70.10
8002;DHT22;4046;48.774;8.732;2024-02-28T07:09:07;20.70;70.20
8002;DHT22;4046;48.774;8.732;2024-02-28T07:11:37;20.70;70.10
8002;DHT22;4046;48.774;8.732;2024-02-28T07:14:04;20.60;70.00
8002;DHT22;4046;48.774;8.732;2024-02-28T07:16:31;20.60;70.00
8002;DHT22;4046;48.774;8.732;2024-02-28T07:19:01;20.60;70.00
8002;DHT22;4046;48.774;8.732;2024-02-28T07:21:27;20.70;70.10
8002;DHT22;4046;48.774;8.732;2024-02-28T07:23:53;20.70;70.10
8002;DHT22;4046;48.774;8.732;2024-02-28T07:26:20;20.70;70.10
8002;DHT22;4046;48.774;8.732;2024-02-28T07:28:46;20.70;70.10
8002;DHT22;4046;48.774;8.732;2024-02-28T07:31:16;20.90;70.30
8002;DHT22;4046;48.774;8.732;2024-02-28T07:33:42;20.70;70.10
8002;DHT22;4046;48.774;8.732;2024-02-28T07:36:08;20.70;70.10
8002;DHT22;4046;48.774;8.732;2024-02-28T07:39:10;20.70;70.10
8002;DHT22;4046;48.774;8.732;2024-02-28T07:41:39;20.70;70.10
8002;DHT22;4046;48.774;8.732;2024-02-28T07:44:06;20.80;70.10
8002;DHT22;4046;48.774;8.732;2024-02-28T07:46:33;20.70;70.10
8002;DHT22;4046;48.774;8.732;2024-02-28T07:49:12;20.70;70.10
8002;DHT22;4046;48.774;8.732;2024-02-28T07:51:39;20.70;70.10
8002;DHT22;4046;48.774;8.732;2024-02-28T07:54:06;20.60;70.00
8002;DHT22;4046;48.774;8.732;2024-02-28T07:56:38;20.60;70.10
8002;DHT22;4046;48.774;8.732;2024-02-28T07:59:22;20.70;70.10
8002;DHT22;4046;48.774;8.732;2024-02-28T08:01:48;20.60;70.00
8002;DHT22;4046;48.774;8.732;2024-02-28T08:04:14;20.60;70.10
8002;DHT22;4046;48.774;8.732;2024-02-28T08:07:03;20.60;70.00
8002;DHT22;4046;48.774;8.732;2024-02-28T08:09:39;20.70;70.10
8002;DHT22;4046;48.774;8.732;2024-02-28T08:12:06;20.60;70.00
8002;DHT22;4046;48.774;8.732;2024-02-28T08:14:32;20.60;70.00
8002;DHT22;4046;48.774;8.732;2024-02-28T08:17:15;20.70;70.10
8002;DHT22;4046;48.774;8.732;2024-02-28T08:19:42;20.70;70.10
8002;DHT22;4046;48.774;8.732;2024-02-28T08:22:15;20.60;70.00
8002;DHT22;4046;48.774;8.732;2024-02-28T08:24:50;20.60;70.00
8002;DHT22;4046;48.774;8.732;2024-02-28T08:27:45;20.70;70.10
8002;DHT22;4046;48.774;8.732;2024-02-28T08:30:11;20.60;70.00
8002;DHT22;4046;48.774;8.732;2024-02-28T08:33:08;20.60;70.00
8002;DHT22;4046;48.774;8.732;2024-02-28T08:35:47;20.60;70.00
8002;DHT22;4046;48.774;8.732;2024-02-28T08:38:30;20.60;70.00
8002;DHT22;4046;48.774;8.732;2024-02-28T08:41:21;20.70;70.10
8002;DHT22;4046;48.774;8.732;2024-02-28T08:43:48;20.60;70.10
8002;DHT22;4046;48.774;8.732;2024-02-28T08:46:24;20.60;70.00
8002;DHT22;4046;48.774;8.732;2024-02-28T08:52:33;20.70;70.10
8002;DHT22;4046;48.774;8.732;2024-02-28T08:54:59;20.60;70.00
8002;DHT22;4046;48.774;8.732;2024-02-28T08:57:25;20.60;70.00
8002;DHT22;4046;48.774;8.732;2024-02-28T09:00:48;20.70;70.10
8002;DHT22;4046;48.774;8.732;2024-02-28T09:03:04;20.60;70.00
8002;DHT22;4046;48.774;8.732;2024-02-28T09:09:05;20.70;70.00
8002;DHT22;4046;48.774;8.732;2024-02-28T09:11:32;20.60;70.00
8002;DHT22;4046;48.774;8.732;2024-02-28T09:14:33;20.60;70.00
8002;DHT22;4046;48.774;8.732;2024-02-28T09:21:31;20.60;70.00
8002;DHT22;4046;48.774;8.732;2024-02-28T09:27:15;20.60;70.10
8002;DHT22;4046;48.774;8.732;2024-02-28T09:30:16;20.60;70.00
8002;DHT22;4046;48.774;8.732;2024-02-28T09:32:44;20.60;70.10
8002;DHT22;4046;48.774;8.732;2024-02-28T09:35:10;20.60;70.10
8002;DHT22;4046;48.774;8.732;2024-02-28T09:37:39;20.60;70.10
8002;DHT22;4046;48.774;8.732;2024-02-28T09:40:09;20.60;70.10
8002;DHT22;4046;48.774;8.732;2024-02-28T09:43:11;20.50;70.00
8002;DHT22;4046;48.774;8.732;2024-02-28T09:46:05;20.60;70.10
8002;DHT22;4046;48.774;8.732;2024-02-28T09:48:33;20.60;70.10
8002;DHT22;4046;48.774;8.732;2024-02-28T09:51:00;20.50;70.00
8002;DHT22;4046;48.774;8.732;2024-02-28T09:53:36;20.60;70.10
8002;DHT22;4046;48.774;8.732;2024-02-28T09:56:03;20.50;70.00
8002;DHT22;4046;48.774;8.732;2024-02-28T09:58:30;20.50;70.00
8002;DHT22;4046;48.774;8.732;2024-02-28T10:00:59;20.50;70.00
8002;DHT22;4046;48.774;8.732;2024-02-28T10:03:30;20.50;70.00
8002;DHT22;4046;48.774;8.732;2024-02-28T10:05:56;20.50;69.90
8002;DHT22;4046;48.774;8.732;2024-02-28T10:08:23;20.60;70.10
8002;DHT22;4046;48.774;8.732;2024-02-28T10:10:49;20.50;70.00
8002;DHT22;4046;48.774;8.732;2024-02-28T10:13:20;20.50;70.00
8002;DHT22;4046;48.774;8.732;2024-02-28T10:15:49;20.50;69.90
8002;DHT22;4046;48.774;8.732;2024-02-28T10:18:15;20.50;70.00
8002;DHT22;4046;48.774;8.732;2024-02-28T10:20:42;20.50;69.90
8002;DHT22;4046;48.774;8.732;2024-02-28T10:23:08;20.50;69.90
8002;DHT22;4046;48.774;8.732;2024-02-28T10:25:45;20.50;70.00
8002;DHT22;4046;48.774;8.732;2024-02-28T10:28:24;20.50;70.00
8002;DHT22;4046;48.774;8.732;2024-02-28T10:31:37;20.50;69.90
8002;DHT22;4046;48.774;8.732;2024-02-28T10:34:04;20.50;70.00
8002;DHT22;4046;48.774;8.732;2024-02-28T10:36:32;20.50;70.20
8002;DHT22;4046;48.774;8.732;2024-02-28T10:39:00;20.50;70.00
8002;DHT22;4046;48.774;8.732;2024-02-28T10:41:28;20.50;70.00
8002;DHT22;4046;48.774;8.732;2024-02-28T10:43:54;20.50;70.00
8002;DHT22;4046;48.774;8.732;2024-02-28T10:46:21;20.50;70.00
8002;DHT22;4046;48.774;8.732;2024-02-28T10:48:49;20.50;69.90
8002;DHT22;4046;48.774;8.732;2024-02-28T10:51:23;20.50;69.80
8002;DHT22;4046;48.774;8.732;2024-02-28T10:53:59;20.50;69.90
8002;DHT22;4046;48.774;8.732;2024-02-28T10:56:49;20.50;69.90
8002;DHT22;4046;48.774;8.732;2024-02-28T10:59:48;20.50;69.90
8002;DHT22;4046;48.774;8.732;2024-02-28T11:02:15;20.50;69.90
8002;DHT22;4046;48.774;8.732;2024-02-28T11:04:41;20.50;69.90
8002;DHT22;4046;48.774;8.732;2024-02-28T11:07:43;20.50;69.90
8002;DHT22;4046;48.774;8.732;2024-02-28T11:10:18;20.70;70.20
8002;DHT22;4046;48.774;8.732;2024-02-28T11:12:54;20.50;70.10
8002;DHT22;4046;48.774;8.732;2024-02-28T11:15:25;20.50;70.10
8002;DHT22;4046;48.774;8.732;2024-02-28T11:18:07;20.50;70.00
8002;DHT22;4046;48.774;8.732;2024-02-28T11:20:34;20.50;70.00
8002;DHT22;4046;48.774;8.732;2024-02-28T11:23:10;20.50;70.80
8002;DHT22;4046;48.774;8.732;2024-02-28T11:26:04;20.50;70.00
8002;DHT22;4046;48.774;8.732;2024-02-28T11:28:30;20.50;70.00
8002;DHT22;4046;48.774;8.732;2024-02-28T11:30:56;20.50;69.90
8002;DHT22;4046;48.774;8.732;2024-02-28T11:33:22;20.50;69.90
8002;DHT22;4046;48.774;8.732;2024-02-28T11:36:01;20.50;69.90
8002;DHT22;4046;48.774;8.732;2024-02-28T11:38:56;20.50;69.90
8002;DHT22;4046;48.774;8.732;2024-02-28T11:42:15;20.50;69.90
8002;DHT22;4046;48.774;8.732;2024-02-28T11:44:42;20.50;69.90
8002;DHT22;4046;48.774;8.732;2024-02-28T11:47:09;20.50;69.90
8002;DHT22;4046;48.774;8.732;2024-02-28T11:49:44;20.50;69.90
8002;DHT22;4046;48.774;8.732;2024-02-28T11:52:19;20.50;69.90
8002;DHT22;4046;48.774;8.732;2024-02-28T11:54:46;20.50;69.90
8002;DHT22;4046;48.774;8.732;2024-02-28T11:57:37;20.50;70.00
8002;DHT22;4046;48.774;8.732;2024-02-28T12:00:11;20.50;69.90
8002;DHT22;4046;48.774;8.732;2024-02-28T12:02:40;20.50;69.90
8002;DHT22;4046;48.774;8.732;2024-02-28T12:05:15;20.50;69.80
8002;DHT22;4046;48.774;8.732;2024-02-28T12:07:52;20.50;69.80
8002;DHT22;4046;48.774;8.732;2024-02-28T12:10:19;20.50;69.90
8002;DHT22;4046;48.774;8.732;2024-02-28T12:12:46;20.50;69.90
8002;DHT22;4046;48.774;8.732;2024-02-28T12:16:10;20.50;69.80
8002;DHT22;4046;48.774;8.732;2024-02-28T12:18:36;20.50;69.80
8002;DHT22;4046;48.774;8.732;2024-02-28T12:24:36;20.50;69.90
8002;DHT22;4046;48.774;8.732;2024-02-28T12:27:12;20.50;69.90
8002;DHT22;4046;48.774;8.732;2024-02-28T12:29:38;20.50;69.90
8002;DHT22;4046;48.774;8.732;2024-02-28T12:32:13;20.50;69.80
8002;DHT22;4046;48.774;8.732;2024-02-28T12:34:42;20.50;69.90
8002;DHT22;4046;48.774;8.732;2024-02-28T12:37:09;20.70;70.10
8002;DHT22;4046;48.774;8.732;2024-02-28T12:39:35;20.50;69.80
8002;DHT22;4046;48.774;8.732;2024-02-28T12:42:01;20.50;69.80
8002;DHT22;4046;48.774;8.732;2024-02-28T12:44:28;20.50;69.80
8002;DHT22;4046;48.774;8.732;2024-02-28T12:47:46;20.50;69.80
8002;DHT22;4046;48.774;8.732;2024-02-28T12:50:13;20.50;69.80
8002;DHT22;4046;48.774;8.732;2024-02-28T12:52:39;20.50;69.80
8002;DHT22;4046;48.774;8.732;2024-02-28T12:55:05;20.50;69.80
8002;DHT22;4046;48.774;8.732;2024-02-28T12:57:32;20.50;69.80
8002;DHT22;4046;48.774;8.732;2024-02-28T13:02:45;20.50;69.80
8002;DHT22;4046;48.774;8.732;2024-02-28T13:05:11;20.50;69.80
8002;DHT22;4046;48.774;8.732;2024-02-28T13:07:41;20.50;69.80
8002;DHT22;4046;48.774;8.732;2024-02-28T13:10:07;20.50;69.80
8002;DHT22;4046;48.774;8.732;2024-02-28T13:12:35;20.50;69.80
8002;DHT22;4046;48.774;8.732;2024-02-28T13:15:01;20.60;69.90
8002;DHT22;4046;48.774;8.732;2024-02-28T13:17:41;20.50;69.80
8002;DHT22;4046;48.774;8.732;2024-02-28T13:20:18;20.50;69.80
8002;DHT22;4046;48.774;8.732;2024-02-28T13:22:45;20.50;69.80
8002;DHT22;4046;48.774;8.732;2024-02-28T13:25:12;20.50;69.80
8002;DHT22;4046;48.774;8.732;2024-02-28T13:27:40;20.60;69.90
8002;DHT22;4046;48.774;8.732;2024-02-28T13:30:07;20.60;69.80
8002;DHT22;4046;48.774;8.732;2024-02-28T13:32:33;20.60;69.80
8002;DHT22;4046;48.774;8.732;2024-02-28T13:34:59;20.60;69.80
8002;DHT22;4046;48.774;8.732;2024-02-28T13:37:26;20.60;69.80
8002;DHT22;4046;48.774;8.732;2024-02-28T13:40:17;20.60;69.80
8002;DHT22;4046;48.774;8.732;2024-02-28T13:42:52;20.60;69.80
8002;DHT22;4046;48.774;8.732;2024-02-28T13:45:18;20.60;69.80
8002;DHT22;4046;48.774;8.732;2024-02-28T13:50:54;20.60;69.80
8002;DHT22;4046;48.774;8.732;2024-02-28T13:53:21;20.60;69.80
8002;DHT22;4046;48.774;8.732;2024-02-28T13:56:04;20.60;69.80
8002;DHT22;4046;48.774;8.732;2024-02-28T13:59:05;20.60;69.80
8002;DHT22;4046;48.774;8.732;2024-02-28T14:01:45;20.60;69.80
8002;DHT22;4046;48.774;8.732;2024-02-28T14:05:06;20.60;69.90
8002;DHT22;4046;48.774;8.732;2024-02-28T14:08:01;20.60;69.80
8002;DHT22;4046;48.774;8.732;2024-02-28T14:10:35;20.60;69.80
8002;DHT22;4046;48.774;8.732;2024-02-28T14:13:37;20.60;69.80
8002;DHT22;4046;48.774;8.732;2024-02-28T14:16:36;20.60;69.80
8002;DHT22;4046;48.774;8.732;2024-02-28T14:19:18;20.60;69.80
8002;DHT22;4046;48.774;8.732;2024-02-28T14:25:04;20.70;69.80
8002;DHT22;4046;48.774;8.732;2024-02-28T14:27:53;20.60;69.70
8002;DHT22;4046;48.774;8.732;2024-02-28T14:30:36;20.60;69.70
8002;DHT22;4046;48.774;8.732;2024-02-28T14:33:02;20.60;69.60
8002;DHT22;4046;48.774;8.732;2024-02-28T14:35:38;20.60;69.70
8002;DHT22;4046;48.774;8.732;2024-02-28T14:38:14;20.60;69.70
8002;DHT22;4046;48.774;8.732;2024-02-28T14:40:41;20.60;69.80
8002;DHT22;4046;48.774;8.732;2024-02-28T14:43:07;20.60;69.70
8002;DHT22;4046;48.774;8.732;2024-02-28T14:45:34;20.60;69.70
8002;DHT22;4046;48.774;8.732;2024-02-28T14:48:24;20.70;69.80
8002;DHT22;4046;48.774;8.732;2024-02-28T14:51:03;20.70;69.80
8002;DHT22;4046;48.774;8.732;2024-02-28T14:53:29;20.70;69.80
8002;DHT22;4046;48.774;8.732;2024-02-28T14:55:56;20.60;69.80
8002;DHT22;4046;48.774;8.732;2024-02-28T14:58:22;20.60;69.70
8002;DHT22;4046;48.774;8.732;2024-02-28T15:00:49;20.70;70.10
8002;DHT22;4046;48.774;8.732;2024-02-28T15:03:15;20.60;69.70
8002;DHT22;4046;48.774;8.732;2024-02-28T15:05:42;20.60;69.80
8002;DHT22;4046;48.774;8.732;2024-02-28T15:08:10;20.60;69.70
8002;DHT22;4046;48.774;8.732;2024-02-28T15:10:42;20.60;69.70
8002;DHT22;4046;48.774;8.732;2024-02-28T15:13:09;20.70;70.00
8002;DHT22;4046;48.774;8.732;2024-02-28T15:15:35;20.60;69.80
8002;DHT22;4046;48.774;8.732;2024-02-28T15:18:01;20.60;69.80
8002;DHT22;4046;48.774;8.732;2024-02-28T15:20:27;20.60;69.80
8002;DHT22;4046;48.774;8.732;2024-02-28T15:22:54;20.60;69.80
8002;DHT22;4046;48.774;8.732;2024-02-28T15:25:21;20.60;69.90
8002;DHT22;4046;48.774;8.732;2024-02-28T15:27:47;20.60;69.80
8002;DHT22;4046;48.774;8.732;2024-02-28T15:33:14;20.70;69.90
8002;DHT22;4046;48.774;8.732;2024-02-28T15:39:00;20.60;69.80
8002;DHT22;4046;48.774;8.732;2024-02-28T15:41:26;20.60;69.80
8002;DHT22;4046;48.774;8.732;2024-02-28T15:43:52;20.60;69.90
8002;DHT22;4046;48.774;8.732;2024-02-28T15:46:18;20.60;69.90
8002;DHT22;4046;48.774;8.732;2024-02-28T15:48:45;20.60;69.90
8002;DHT22;4046;48.774;8.732;2024-02-28T15:51:32;20.20;69.50
8002;DHT22;4046;48.774;8.732;2024-02-28T15:54:59;20.60;69.90
8002;DHT22;4046;48.774;8.732;2024-02-28T16:00:52;20.50;69.90
8002;DHT22;4046;48.774;8.732;2024-02-28T16:03:19;20.70;70.10
8002;DHT22;4046;48.774;8.732;2024-02-28T16:05:45;20.50;69.90
8002;DHT22;4046;48.774;8.732;2024-02-28T16:08:12;20.50;70.00
8002;DHT22;4046;48.774;8.732;2024-02-28T16:11:00;20.50;69.90
8002;DHT22;4046;48.774;8.732;2024-02-28T16:13:25;20.50;69.90
8002;DHT22;4046;48.774;8.732;2024-02-28T16:16:18;20.50;69.90
8002;DHT22;4046;48.774;8.732;2024-02-28T16:19:05;20.50;70.00
8002;DHT22;4046;48.774;8.732;2024-02-28T16:21:31;20.50;70.00
8002;DHT22;4046;48.774;8.732;2024-02-28T16:24:17;20.50;70.00
8002;DHT22;4046;48.774;8.732;2024-02-28T16:27:12;20.50;70.00
8002;DHT22;4046;48.774;8.732;2024-02-28T16:29:56;20.50;70.10
8002;DHT22;4046;48.774;8.732;2024-02-28T16:32:44;20.50;70.00
8002;DHT22;4046;48.774;8.732;2024-02-28T16:35:11;20.50;70.00
8002;DHT22;4046;48.774;8.732;2024-02-28T16:37:38;20.50;70.10
8002;DHT22;4046;48.774;8.732;2024-02-28T16:40:04;20.50;70.10
8002;DHT22;4046;48.774;8.732;2024-02-28T16:49:05;20.50;70.00
8002;DHT22;4046;48.774;8.732;2024-02-28T16:51:31;20.50;70.00
8002;DHT22;4046;48.774;8.732;2024-02-28T16:53:58;20.50;70.00
8002;DHT22;4046;48.774;8.732;2024-02-28T16:56:24;20.50;70.10
8002;DHT22;4046;48.774;8.732;2024-02-28T16:58:50;20.50;70.10
8002;DHT22;4046;48.774;8.732;2024-02-28T17:01:16;20.50;70.10
8002;DHT22;4046;48.774;8.732;2024-02-28T17:03:43;20.50;70.10
8002;DHT22;4046;48.774;8.732;2024-02-28T17:06:09;20.50;70.10
8002;DHT22;4046;48.774;8.732;2024-02-28T17:08:35;20.50;70.10
8002;DHT22;4046;48.774;8.732;2024-02-28T17:11:05;20.40;70.00
8002;DHT22;4046;48.774;8.732;2024-02-28T17:13:41;20.50;70.10
8002;DHT22;4046;48.774;8.732;2024-02-28T17:16:40;20.50;70.10
8002;DHT22;4046;48.774;8.732;2024-02-28T17:19:11;20.60;70.10
8002;DHT22;4046;48.774;8.732;2024-02-28T17:21:37;20.60;70.00
8002;DHT22;4046;48.774;8.732;2024-02-28T17:24:04;20.60;70.00
8002;DHT22;4046;48.774;8.732;2024-02-28T17:26:31;20.70;70.00
8002;DHT22;4046;48.774;8.732;2024-02-28T17:28:57;20.70;70.00
8002;DHT22;4046;48.774;8.732;2024-02-28T17:31:24;20.70;69.90
8002;DHT22;4046;48.774;8.732;2024-02-28T17:34:02;20.80;70.00
8002;DHT22;4046;48.774;8.732;2024-02-28T17:37:09;20.80;70.00
8002;DHT22;4046;48.774;8.732;2024-02-28T17:39:35;20.80;69.90
8002;DHT22;4046;48.774;8.732;2024-02-28T17:42:18;20.80;69.90
8002;DHT22;4046;48.774;8.732;2024-02-28T17:44:50;20.80;69.90
8002;DHT22;4046;48.774;8.732;2024-02-28T17:47:20;20.80;69.90
8002;DHT22;4046;48.774;8.732;2024-02-28T17:49:46;20.80;69.90
8002;DHT22;4046;48.774;8.732;2024-02-28T17:52:43;20.80;69.90
8002;DHT22;4046;48.774;8.732;2024-02-28T17:55:39;20.80;69.80
8002;DHT22;4046;48.774;8.732;2024-02-28T17:58:06;20.80;69.90
8002;DHT22;4046;48.774;8.732;2024-02-28T18:00:32;20.80;69.90
8002;DHT22;4046;48.774;8.732;2024-02-28T18:02:58;20.80;69.80
8002;DHT22;4046;48.774;8.732;2024-02-28T18:05:25;20.80;69.80
8002;DHT22;4046;48.774;8.732;2024-02-28T18:11:24;20.80;69.90
8002;DHT22;4046;48.774;8.732;2024-02-28T18:13:51;20.80;69.90
8002;DHT22;4046;48.774;8.732;2024-02-28T18:16:17;20.80;69.90
8002;DHT22;4046;48.774;8.732;2024-02-28T18:18:45;20.80;70.00
8002;DHT22;4046;48.774;8.732;2024-02-28T18:21:11;20.80;70.00
8002;DHT22;4046;48.774;8.732;2024-02-28T18:23:37;20.80;70.00
8002;DHT22;4046;48.774;8.732;2024-02-28T18:26:14;20.80;70.00
8002;DHT22;4046;48.774;8.732;2024-02-28T18:29:04;20.80;70.00
8002;DHT22;4046;48.774;8.732;2024-02-28T18:31:30;20.80;70.00